Terminal Aerodrome Forecast
Issued by NWS

Home | Current Version | Previous Version | Text Only | Print | Product List | Glossary On
Versions: 1 2 3 4 5 6 7 8 9 10 11 12 13 14 15 16 17 18 19 20 21 22 23 24 25 26 27 28 29 30 31 32 33
000
FTUS41 KBUF 301900 AAA
TAFJHW
TAF AMD
KJHW 301915Z 3019/3118 23010KT P6SM VCSH SCT025 BKN040
      TEMPO 3020/3022 BKN025
     FM302200 26008KT P6SM SCT015 BKN025
     FM310500 21004KT P6SM VCSH SCT007 BKN025
     FM310900 22004KT P6SM VCSH BKN007
     FM311500 24010KT P6SM BKN035
      AMD LTD TO CLD VIS AND WIND=

USA.gov is the U.S. government's official web portal to all federal, state and local government web resources and services.